createdAt,value
2023-11-24T00:00:54.430Z,4.92
2023-11-24T00:03:26.561Z,5.78
2023-11-24T00:05:58.586Z,4.80
2023-11-24T00:08:30.504Z,8.20
2023-11-24T00:11:03.972Z,5.72
2023-11-24T00:13:35.983Z,6.08
2023-11-24T00:16:09.522Z,6.53
2023-11-24T00:18:41.994Z,4.28
2023-11-24T00:21:13.965Z,5.42
2023-11-24T00:23:46.433Z,4.75
2023-11-24T00:26:19.992Z,5.70
2023-11-24T00:28:52.281Z,7.25
2023-11-24T00:31:26.211Z,5.75
2023-11-24T00:33:58.679Z,4.70
2023-11-24T00:36:31.127Z,5.87
2023-11-24T00:39:05.004Z,5.10
2023-11-24T00:41:37.001Z,4.65
2023-11-24T00:44:09.101Z,4.83
2023-11-24T00:46:40.940Z,4.97
2023-11-24T00:49:12.905Z,5.65
2023-11-24T00:54:15.005Z,4.70
2023-11-24T00:56:46.838Z,4.72
2023-11-24T00:59:18.968Z,4.45
2023-11-24T01:01:50.838Z,4.87
2023-11-24T01:04:24.132Z,4.20
2023-11-24T01:06:56.242Z,4.58
2023-11-24T01:09:28.153Z,3.80
2023-11-24T01:12:00.066Z,3.08
2023-11-24T01:14:33.427Z,3.98
2023-11-24T01:17:05.863Z,3.42
2023-11-24T01:19:38.592Z,3.20
2023-11-24T01:22:10.542Z,3.47
2023-11-24T01:24:42.567Z,3.77
2023-11-24T01:27:14.934Z,3.47
2023-11-24T01:29:46.808Z,3.75
2023-11-24T01:32:18.921Z,4.47
2023-11-24T01:34:50.811Z,3.87
2023-11-24T01:37:23.415Z,2.98
2023-11-24T01:39:55.437Z,3.77
2023-11-24T01:42:27.662Z,3.60
2023-11-24T01:44:59.595Z,2.77
2023-11-24T01:47:31.518Z,3.80
2023-11-24T01:50:04.563Z,3.85
2023-11-24T01:52:37.222Z,3.50
2023-11-24T01:55:13.258Z,4.47
2023-11-24T01:57:46.347Z,3.62
2023-11-24T02:00:19.671Z,5.17
2023-11-24T02:02:51.681Z,4.05
2023-11-24T02:05:23.817Z,3.70
2023-11-24T02:07:56.058Z,4.28
2023-11-24T02:10:29.576Z,3.67
2023-11-24T02:13:01.457Z,4.60
2023-11-24T02:15:33.504Z,4.20
2023-11-24T02:18:05.364Z,4.40
2023-11-24T02:20:38.730Z,3.83
2023-11-24T02:23:13.124Z,5.72
2023-11-24T02:25:45.037Z,4.40
2023-11-24T02:28:17.166Z,5.85
2023-11-24T02:30:49.397Z,5.87
2023-11-24T02:33:22.018Z,5.12
2023-11-24T02:35:54.764Z,6.58
2023-11-24T02:38:26.721Z,6.35
2023-11-24T02:40:58.727Z,6.87
2023-11-24T02:43:30.993Z,5.53
2023-11-24T02:46:02.945Z,6.97
2023-11-24T02:48:35.115Z,9.18
2023-11-24T02:51:09.114Z,8.25
2023-11-24T02:53:41.912Z,7.22
2023-11-24T02:56:14.722Z,7.30
2023-11-24T02:58:46.663Z,8.05
2023-11-24T03:01:18.656Z,6.75
2023-11-24T03:03:50.762Z,7.05
2023-11-24T03:06:23.929Z,7.08
2023-11-24T03:08:55.825Z,7.60
2023-11-24T03:11:27.756Z,8.28
2023-11-24T03:14:00.417Z,6.85
2023-11-24T03:16:32.329Z,7.47
2023-11-24T03:19:05.362Z,7.70
2023-11-24T03:21:38.030Z,7.90
2023-11-24T03:24:10.849Z,9.00
2023-11-24T03:26:43.197Z,8.18
2023-11-24T03:29:15.572Z,6.42
2023-11-24T03:31:47.982Z,7.17
2023-11-24T03:34:19.894Z,7.45
2023-11-24T03:36:52.632Z,8.00
2023-11-24T03:39:24.688Z,7.90
2023-11-24T03:41:57.553Z,7.97
2023-11-24T03:44:29.613Z,7.65
2023-11-24T03:47:01.638Z,7.85
2023-11-24T03:49:33.681Z,7.33
2023-11-24T03:52:06.844Z,6.65
2023-11-24T03:54:38.893Z,5.83
2023-11-24T03:57:11.136Z,7.28
2023-11-24T03:59:42.987Z,6.85
2023-11-24T04:02:15.126Z,6.33
2023-11-24T04:04:48.292Z,6.75
2023-11-24T04:07:20.618Z,6.10
2023-11-24T04:09:53.044Z,6.90
2023-11-24T04:12:25.703Z,7.42
2023-11-24T04:14:57.652Z,7.33
2023-11-24T04:17:29.610Z,5.95
2023-11-24T04:20:01.444Z,6.72
2023-11-24T04:22:34.486Z,6.90
2023-11-24T04:25:07.396Z,7.30
2023-11-24T04:27:39.500Z,8.88
2023-11-24T04:30:15.515Z,8.03
2023-11-24T04:32:47.567Z,6.22
2023-11-24T04:35:19.555Z,8.13
2023-11-24T04:37:52.161Z,6.20
2023-11-24T04:40:24.837Z,7.05
2023-11-24T04:42:56.971Z,6.40
2023-11-24T04:45:47.737Z,8.68
2023-11-24T04:48:19.853Z,7.90
2023-11-24T04:50:51.876Z,7.37
2023-11-24T04:53:23.768Z,6.87
2023-11-24T04:55:56.150Z,6.92
2023-11-24T04:58:28.311Z,7.10
2023-11-24T05:01:00.489Z,6.70
2023-11-24T05:03:33.014Z,6.50
2023-11-24T05:06:05.002Z,6.20
2023-11-24T05:08:38.098Z,6.35
2023-11-24T05:11:10.132Z,6.28
2023-11-24T05:13:42.110Z,6.87
2023-11-24T05:16:14.071Z,5.80
2023-11-24T05:18:46.091Z,9.00
2023-11-24T05:21:18.036Z,6.72
2023-11-24T05:23:50.105Z,6.78
2023-11-24T05:26:23.503Z,6.50
2023-11-24T05:28:55.493Z,4.92
2023-11-24T05:31:27.265Z,5.87
2023-11-24T05:34:00.604Z,5.90
2023-11-24T05:36:32.752Z,6.50
2023-11-24T05:39:06.510Z,5.90
2023-11-24T05:41:38.432Z,6.60
2023-11-24T05:44:10.496Z,5.47
2023-11-24T05:46:42.323Z,7.00
2023-11-24T05:49:16.178Z,6.28
2023-11-24T05:51:48.153Z,5.22
2023-11-24T05:54:20.024Z,6.05
2023-11-24T05:56:51.984Z,6.47
2023-11-24T05:59:24.425Z,6.53
2023-11-24T06:01:56.780Z,5.60
2023-11-24T06:04:29.030Z,6.17
2023-11-24T06:07:01.226Z,5.70
2023-11-24T06:09:34.184Z,15.03
2023-11-24T06:12:07.481Z,6.12
2023-11-24T06:14:49.656Z,5.92
2023-11-24T06:17:21.640Z,5.78
2023-11-24T06:19:54.260Z,4.17
2023-11-24T06:22:26.284Z,4.95
2023-11-24T06:24:58.332Z,5.95
2023-11-24T06:27:30.217Z,6.20
2023-11-24T06:33:40.988Z,4.97
2023-11-24T06:36:13.621Z,4.70
2023-11-24T06:38:45.419Z,5.67
2023-11-24T06:41:17.400Z,7.40
2023-11-24T06:43:49.407Z,3.98
2023-11-24T06:46:22.887Z,4.47
2023-11-24T06:48:54.929Z,4.60
2023-11-24T06:51:27.533Z,4.72
2023-11-24T06:53:59.350Z,4.28
2023-11-24T06:56:32.632Z,5.47
2023-11-24T06:59:04.410Z,5.08
2023-11-24T07:01:37.053Z,4.83
2023-11-24T07:04:09.522Z,4.60
2023-11-24T07:06:41.587Z,4.90
2023-11-24T07:09:13.505Z,4.67
2023-11-24T07:11:46.882Z,4.80
2023-11-24T07:14:18.864Z,5.22
2023-11-24T07:16:50.746Z,4.00
2023-11-24T07:19:23.833Z,5.03
2023-11-24T07:21:55.886Z,3.98
2023-11-24T07:24:29.138Z,3.70
2023-11-24T07:27:01.521Z,4.90
2023-11-24T07:29:34.734Z,5.00
2023-11-24T07:32:07.555Z,7.78
2023-11-24T07:34:39.647Z,5.10
2023-11-24T07:37:12.071Z,5.28
2023-11-24T07:39:46.376Z,4.28
2023-11-24T07:42:17.564Z,5.33
2023-11-24T07:44:49.691Z,4.95
2023-11-24T07:47:21.685Z,4.08
2023-11-24T07:49:53.643Z,4.20
2023-11-24T07:52:27.330Z,3.85
2023-11-24T07:54:59.372Z,5.40
2023-11-24T07:57:31.385Z,4.15
2023-11-24T08:13:13.872Z,4.25
2023-11-24T08:15:45.665Z,5.30
2023-11-24T08:18:17.648Z,4.00
2023-11-24T08:20:49.585Z,4.17
2023-11-24T08:23:22.566Z,4.80
2023-11-24T08:25:54.393Z,3.65
2023-11-24T08:28:26.290Z,4.45
2023-11-24T08:30:58.156Z,4.95
2023-11-24T08:33:30.113Z,5.33
2023-11-24T08:36:01.950Z,4.50
2023-11-24T08:38:33.905Z,5.62
2023-11-24T08:41:23.704Z,4.67
2023-11-24T08:43:48.378Z,5.25
2023-11-24T08:46:20.324Z,4.15
2023-11-24T08:48:52.360Z,4.03
2023-11-24T08:51:24.220Z,4.12
2023-11-24T08:53:56.055Z,3.92
2023-11-24T08:56:29.622Z,5.03
2023-11-24T08:59:01.830Z,3.95
2023-11-24T09:01:33.788Z,4.15
2023-11-24T09:04:06.265Z,3.27
2023-11-24T09:06:40.000Z,3.60
2023-11-24T09:09:13.581Z,2.77
2023-11-24T09:14:21.315Z,3.40
2023-11-24T09:16:53.316Z,4.20
2023-11-24T09:19:25.261Z,3.25
2023-11-24T09:22:00.120Z,4.17
2023-11-24T09:24:32.051Z,1.92
2023-11-24T09:27:04.622Z,2.35
2023-11-24T09:29:36.683Z,2.12
2023-11-24T09:32:09.528Z,1.67
2023-11-24T09:34:41.557Z,2.45
2023-11-24T09:37:13.615Z,1.60
2023-11-24T09:39:45.565Z,1.85
2023-11-24T09:42:19.936Z,2.00
2023-11-24T09:44:54.795Z,1.35
2023-11-24T09:47:27.374Z,1.72
2023-11-24T09:50:02.537Z,1.52
2023-11-24T09:52:34.717Z,1.85
2023-11-24T09:55:08.412Z,2.47
2023-11-24T09:57:41.626Z,1.80
2023-11-24T10:00:17.315Z,1.47
2023-11-24T10:02:50.075Z,1.57
2023-11-24T10:05:22.839Z,1.60
2023-11-24T10:07:54.851Z,1.40
2023-11-24T10:10:28.367Z,1.50
2023-11-24T10:13:03.317Z,2.08
2023-11-24T10:15:35.895Z,1.50
2023-11-24T10:18:10.973Z,1.85
2023-11-24T10:20:45.100Z,1.80
2023-11-24T10:23:18.409Z,1.70
2023-11-24T10:25:51.258Z,1.30
2023-11-24T10:28:23.114Z,1.30
2023-11-24T10:30:56.665Z,1.40
2023-11-24T10:33:35.302Z,1.27
2023-11-24T10:36:02.566Z,1.55
2023-11-24T10:38:36.311Z,2.02
2023-11-24T10:41:12.462Z,1.85
2023-11-24T10:43:44.884Z,1.35
2023-11-24T10:46:20.002Z,1.00
2023-11-24T10:48:55.106Z,1.40
2023-11-24T10:51:31.765Z,2.10
2023-11-24T10:54:05.725Z,1.98
2023-11-24T10:56:40.728Z,1.75
2023-11-24T10:59:16.016Z,2.62
2023-11-24T11:01:48.531Z,3.00
2023-11-24T11:04:23.336Z,1.70
2023-11-24T11:07:00.273Z,1.30
2023-11-24T11:09:35.298Z,0.93
2023-11-24T11:15:19.193Z,1.32
2023-11-24T11:18:08.863Z,0.90
2023-11-24T11:20:42.487Z,0.93
2023-11-24T11:23:16.613Z,1.07
2023-11-24T11:25:51.074Z,1.35
2023-11-24T11:28:54.303Z,1.37
2023-11-24T11:31:31.647Z,1.30
2023-11-24T11:34:18.264Z,0.85
2023-11-24T11:37:10.146Z,0.93
2023-11-24T11:39:47.034Z,1.07
2023-11-24T11:42:18.956Z,1.10
2023-11-24T11:44:57.652Z,0.88
2023-11-24T11:47:30.778Z,1.00
2023-11-24T11:50:06.489Z,1.00
2023-11-24T11:52:42.382Z,0.62
2023-11-24T11:55:14.414Z,1.35
2023-11-24T11:57:47.848Z,1.92
2023-11-24T12:00:40.214Z,1.17
2023-11-24T12:03:14.121Z,0.60
2023-11-24T12:05:48.476Z,1.05
2023-11-24T12:08:20.912Z,1.15
2023-11-24T12:10:53.162Z,0.90
2023-11-24T12:13:26.501Z,0.80
2023-11-24T12:16:00.952Z,1.02
2023-11-24T12:18:33.403Z,1.00
2023-11-24T12:21:09.286Z,1.30
2023-11-24T12:23:41.294Z,1.00
2023-11-24T12:26:13.154Z,1.05
2023-11-24T12:28:45.013Z,2.98
2023-11-24T12:31:16.941Z,1.17
2023-11-24T12:33:53.399Z,1.00
2023-11-24T12:36:26.520Z,0.80
2023-11-24T12:38:58.462Z,1.17
2023-11-24T12:41:30.338Z,0.85
2023-11-24T12:44:02.301Z,1.50
2023-11-24T12:46:34.447Z,1.50
2023-11-24T12:49:09.608Z,1.20
2023-11-24T12:51:44.674Z,1.45
2023-11-24T12:54:18.201Z,1.20
2023-11-24T12:56:50.014Z,1.45
2023-11-24T12:59:23.822Z,1.40
2023-11-24T13:01:56.084Z,1.30
2023-11-24T13:04:28.157Z,1.30
2023-11-24T13:07:00.235Z,2.10
2023-11-24T13:09:36.678Z,1.45
2023-11-24T13:12:17.926Z,1.62
2023-11-24T13:14:44.659Z,2.58
2023-11-24T13:17:16.601Z,2.12
2023-11-24T13:19:49.833Z,4.62
2023-11-24T13:22:22.608Z,2.00
2023-11-24T13:24:54.949Z,2.45
2023-11-24T13:27:26.731Z,2.25
2023-11-24T13:29:58.635Z,2.02
2023-11-24T13:32:30.586Z,1.87
2023-11-24T13:35:02.757Z,2.15
2023-11-24T13:37:34.630Z,2.42
2023-11-24T13:40:10.646Z,1.65
2023-11-24T13:42:43.018Z,1.77
2023-11-24T13:45:16.850Z,1.87
2023-11-24T13:47:49.189Z,1.70
2023-11-24T13:50:21.493Z,2.05
2023-11-24T13:52:58.081Z,1.50
2023-11-24T13:55:31.924Z,1.60
2023-11-24T13:58:04.457Z,1.40
2023-11-24T14:00:37.409Z,1.75
2023-11-24T14:03:09.386Z,3.50
2023-11-24T14:05:42.173Z,1.50
2023-11-24T14:08:14.051Z,2.10
2023-11-24T14:10:46.331Z,1.75
2023-11-24T14:13:18.363Z,1.60
2023-11-24T14:15:51.203Z,1.52
2023-11-24T14:18:23.375Z,1.47
2023-11-24T14:20:55.273Z,1.50
2023-11-24T14:23:27.266Z,1.87
2023-11-24T14:25:59.097Z,2.67
2023-11-24T14:28:31.045Z,1.62
2023-11-24T14:31:02.953Z,1.62
2023-11-24T14:33:35.602Z,1.57
2023-11-24T14:36:10.714Z,1.25
2023-11-24T14:38:43.115Z,2.35
2023-11-24T14:41:18.218Z,1.62
2023-11-24T14:43:51.164Z,1.30
2023-11-24T14:46:23.619Z,1.17
2023-11-24T14:48:55.635Z,2.52
2023-11-24T14:51:29.874Z,1.05
2023-11-24T14:54:01.765Z,1.22
2023-11-24T14:56:35.283Z,4.42
2023-11-24T14:59:07.314Z,0.78
2023-11-24T15:01:40.444Z,1.02
2023-11-24T15:04:17.703Z,0.85
2023-11-24T15:07:08.523Z,1.77
2023-11-24T15:09:41.968Z,1.50
2023-11-24T15:12:13.855Z,1.00
2023-11-24T15:14:48.229Z,1.20
2023-11-24T15:17:20.085Z,4.47
2023-11-24T15:19:53.454Z,5.10
2023-11-24T15:22:27.338Z,2.72
2023-11-24T15:24:59.654Z,2.33
2023-11-24T15:27:31.882Z,6.87
2023-11-24T15:30:03.935Z,2.62
2023-11-24T15:32:35.935Z,1.62
2023-11-24T15:35:08.590Z,1.42
2023-11-24T15:37:40.460Z,1.50
2023-11-24T15:40:15.705Z,1.72
2023-11-24T15:42:48.809Z,1.50
2023-11-24T15:45:20.922Z,1.37
2023-11-24T15:48:03.485Z,1.30
2023-11-24T15:50:30.748Z,1.67
2023-11-24T15:53:04.964Z,1.70
2023-11-24T15:55:38.551Z,5.37
2023-11-24T15:58:12.225Z,3.77
2023-11-24T16:00:48.775Z,1.35
2023-11-24T16:03:22.325Z,1.05
2023-11-24T16:05:55.976Z,1.32
2023-11-24T16:08:30.048Z,1.32
2023-11-24T16:11:03.563Z,1.07
2023-11-24T16:13:37.059Z,2.05
2023-11-24T16:16:10.527Z,1.27
2023-11-24T16:18:45.577Z,1.30
2023-11-24T16:21:17.736Z,1.95
2023-11-24T16:23:49.560Z,1.90
2023-11-24T16:26:21.713Z,2.25
2023-11-24T16:28:53.644Z,0.98
2023-11-24T16:31:25.640Z,2.52
2023-11-24T16:33:57.578Z,0.88
2023-11-24T16:36:29.700Z,1.05
2023-11-24T16:39:01.550Z,0.80
2023-11-24T16:41:34.099Z,2.58
2023-11-24T16:44:07.414Z,1.90
2023-11-24T16:46:41.143Z,2.02
2023-11-24T16:49:14.174Z,1.75
2023-11-24T16:51:46.526Z,3.40
2023-11-24T16:54:18.412Z,0.70
2023-11-24T16:56:50.564Z,1.32
2023-11-24T16:59:23.012Z,1.47
2023-11-24T17:01:57.390Z,0.78
2023-11-24T17:04:30.549Z,1.02
2023-11-24T17:07:04.071Z,0.98
2023-11-24T17:09:36.058Z,0.85
2023-11-24T17:12:09.922Z,0.65
2023-11-24T17:14:43.514Z,1.52
2023-11-24T17:17:16.124Z,1.35
2023-11-24T17:19:48.373Z,1.25
2023-11-24T17:22:38.947Z,0.80
2023-11-24T17:25:13.797Z,0.95
2023-11-24T17:27:45.935Z,1.30
2023-11-24T17:30:18.104Z,0.72
2023-11-24T17:32:50.121Z,0.78
2023-11-24T17:35:23.417Z,1.00
2023-11-24T17:37:55.336Z,1.90
2023-11-24T17:40:27.913Z,1.50
2023-11-24T17:42:59.909Z,1.40
2023-11-24T17:45:32.085Z,1.37
2023-11-24T17:48:05.878Z,1.05
2023-11-24T17:50:38.678Z,1.12
2023-11-24T17:53:10.708Z,0.90
2023-11-24T17:55:42.634Z,0.82
2023-11-24T17:58:14.506Z,1.00
2023-11-24T18:00:46.739Z,0.82
2023-11-24T18:03:18.968Z,0.82
2023-11-24T18:05:51.160Z,1.20
2023-11-24T18:08:23.864Z,1.65
2023-11-24T18:10:55.934Z,1.35
2023-11-24T18:13:28.504Z,2.08
2023-11-24T18:16:19.286Z,2.75
2023-11-24T18:18:51.137Z,1.55
2023-11-24T18:21:24.830Z,1.70
2023-11-24T18:23:56.715Z,1.42
2023-11-24T18:26:28.584Z,1.95
2023-11-24T18:29:02.242Z,1.20
2023-11-24T18:31:36.516Z,1.82
2023-11-24T18:34:09.646Z,2.10
2023-11-24T18:36:42.419Z,1.90
2023-11-24T18:39:14.402Z,1.40
2023-11-24T18:41:46.313Z,1.55
2023-11-24T18:44:18.615Z,1.62
2023-11-24T18:46:50.557Z,1.45
2023-11-24T18:49:22.567Z,2.15
2023-11-24T18:51:54.492Z,2.77
2023-11-24T18:54:26.700Z,1.82
2023-11-24T18:56:59.428Z,2.75
2023-11-24T18:59:32.048Z,2.10
2023-11-24T19:02:05.740Z,4.60
2023-11-24T19:04:38.139Z,1.98
2023-11-24T19:07:10.588Z,1.92
2023-11-24T19:09:42.661Z,1.82
2023-11-24T19:12:14.544Z,1.85
2023-11-24T19:14:46.428Z,2.02
2023-11-24T19:17:18.439Z,1.57
2023-11-24T19:19:50.514Z,1.90
2023-11-24T19:22:23.090Z,7.20
2023-11-24T19:24:55.711Z,1.72
2023-11-24T19:27:27.733Z,1.60
2023-11-24T19:29:59.978Z,1.27
2023-11-24T19:32:31.840Z,0.80
2023-11-24T19:35:07.414Z,1.10
2023-11-24T19:37:38.771Z,0.80
2023-11-24T19:40:13.201Z,1.82
2023-11-24T19:42:45.706Z,1.15
2023-11-24T19:45:17.928Z,0.47
2023-11-24T19:47:50.025Z,3.17
2023-11-24T19:50:22.111Z,2.35
2023-11-24T19:52:55.650Z,4.17
2023-11-24T19:55:27.575Z,2.47
2023-11-24T19:57:59.891Z,2.08
2023-11-24T20:00:32.450Z,0.50
2023-11-24T20:03:05.197Z,0.60
2023-11-24T20:05:37.691Z,0.95
2023-11-24T20:08:10.637Z,0.70
2023-11-24T20:10:42.612Z,0.68
2023-11-24T20:13:16.218Z,0.72
2023-11-24T20:15:59.115Z,0.85
2023-11-24T20:18:31.087Z,0.75
2023-11-24T20:21:03.284Z,0.93
2023-11-24T20:23:35.260Z,2.02
2023-11-24T20:26:07.786Z,0.68
2023-11-24T20:28:40.556Z,0.98
2023-11-24T20:31:13.704Z,1.57
2023-11-24T20:33:47.153Z,1.05
2023-11-24T20:36:21.366Z,1.55
2023-11-24T20:38:54.653Z,0.95
2023-11-24T20:41:26.611Z,1.42
2023-11-24T20:43:58.488Z,0.70
2023-11-24T20:46:31.307Z,0.70
2023-11-24T20:49:03.457Z,1.00
2023-11-24T20:51:35.266Z,1.05
2023-11-24T20:54:08.387Z,0.85
2023-11-24T20:56:40.688Z,0.85
2023-11-24T20:59:15.731Z,1.10
2023-11-24T21:01:48.066Z,2.55
2023-11-24T21:04:20.202Z,1.72
2023-11-24T21:06:53.831Z,1.57
2023-11-24T21:09:25.783Z,0.95
2023-11-24T21:11:58.083Z,2.25
2023-11-24T21:14:30.036Z,1.20
2023-11-24T21:17:02.441Z,1.50
2023-11-24T21:19:35.390Z,0.82
2023-11-24T21:22:08.195Z,1.37
2023-11-24T21:24:40.320Z,1.15
2023-11-24T21:27:12.818Z,1.02
2023-11-24T21:29:44.879Z,1.40
2023-11-24T21:32:17.759Z,0.68
2023-11-24T21:34:49.620Z,1.00
2023-11-24T21:37:23.171Z,0.60
2023-11-24T21:39:57.048Z,0.70
2023-11-24T21:42:29.302Z,29.30
2023-11-24T21:45:02.892Z,0.80
2023-11-24T21:47:34.940Z,0.90
2023-11-24T21:50:08.827Z,1.12
2023-11-24T21:52:40.646Z,1.82
2023-11-24T21:55:12.825Z,1.22
2023-11-24T21:57:44.591Z,1.02
2023-11-24T22:00:19.031Z,2.33
2023-11-24T22:02:51.285Z,1.25
2023-11-24T22:05:24.885Z,1.25
2023-11-24T22:07:56.870Z,1.57
2023-11-24T22:10:29.486Z,2.47
2023-11-24T22:13:03.087Z,3.37
2023-11-24T22:15:35.155Z,2.20
2023-11-24T22:18:07.595Z,2.33
2023-11-24T22:20:39.640Z,2.35
2023-11-24T22:23:11.741Z,2.08
2023-11-24T22:25:43.672Z,2.45
2023-11-24T22:28:15.671Z,1.92
2023-11-24T22:30:48.491Z,4.25
2023-11-24T22:33:20.522Z,2.37
2023-11-24T22:35:52.513Z,2.10
2023-11-24T22:38:24.535Z,2.08
2023-11-24T22:40:56.537Z,1.92
2023-11-24T22:43:28.576Z,1.90
2023-11-24T22:46:00.603Z,2.27
2023-11-24T22:48:32.575Z,2.92
2023-11-24T22:51:04.690Z,2.00
2023-11-24T22:53:36.607Z,2.02
2023-11-24T22:56:11.729Z,1.25
2023-11-24T22:58:43.664Z,2.10
2023-11-24T23:01:16.402Z,2.00
2023-11-24T23:03:48.582Z,1.87
2023-11-24T23:06:20.620Z,2.20
2023-11-24T23:08:53.494Z,1.65
2023-11-24T23:11:27.057Z,1.77
2023-11-24T23:14:00.352Z,1.55
2023-11-24T23:16:33.785Z,1.30
2023-11-24T23:19:06.026Z,2.62
2023-11-24T23:21:38.329Z,2.15
2023-11-24T23:24:12.280Z,2.35
2023-11-24T23:26:44.316Z,1.72
2023-11-24T23:29:16.348Z,1.65
2023-11-24T23:31:49.373Z,1.65
2023-11-24T23:34:22.319Z,1.85
2023-11-24T23:36:54.286Z,1.65
2023-11-24T23:39:26.464Z,1.80
2023-11-24T23:41:58.433Z,2.52
2023-11-24T23:44:30.441Z,2.47
2023-11-24T23:47:02.471Z,3.55
2023-11-24T23:49:34.442Z,1.92
2023-11-24T23:52:07.297Z,2.35
2023-11-24T23:54:40.549Z,2.02
2023-11-24T23:57:23.107Z,2.00
2023-11-24T23:59:54.941Z,2.33
